MUC | München Airways

 METAR UND TAF INFORMATION

METAR FOR GMAD
ADDS - METARS form results

(1933 UTC 22 May 2019)
Data provider http://aviationweather.gov/metar/data/
 
METAR text: GMAD 221930Z 19008KT 8000 NSC 22/14 Q1010 NOSIG
Conditions at: GMAD (AL MASSIRA MC , MA) observed 1930 UTC 22 May 2019
Temperature: 22.0°C (72°F)
Dewpoint: 14.0°C (57°F) [RH = 60%]
Pressure (altimeter): 29.82 inches Hg (1010.0 mb)
Winds: from the S (190 degrees) at 9 MPH (8 knots; 4.1 m/s)
Visibility: 5 miles ( 8 km)
Ceiling: at least 12,000 feet AGL
Clouds: sky clear below 12,000 feet AGL
Weather: no significant weather observed at this time

METAR text: GMAD 221900Z 22008KT 8000 NSC 23/14 Q1010 NOSIG
Conditions at: GMAD (AL MASSIRA MC , MA) observed 1900 UTC 22 May 2019
Temperature: 23.0°C (73°F)
Dewpoint: 14.0°C (57°F) [RH = 57%]
Pressure (altimeter): 29.82 inches Hg (1010.0 mb)
Winds: from the SW (220 degrees) at 9 MPH (8 knots; 4.1 m/s)
Visibility: 5 miles ( 8 km)
Ceiling: at least 12,000 feet AGL
Clouds: sky clear below 12,000 feet AGL
Weather: no significant weather observed at this time

Forecast for: GMAD (AL MASSIRA MC , MA)
Text: TAF GMAD 221700Z 2218/2324 25013KT 8000 NSC
Forecast period: 1800 to 1900 UTC 22 May 2019
Forecast type: FROM: standard forecast or significant change
Winds: from the WSW (250 degrees) at 15 MPH (13 knots; 6.7 m/s)
Visibility: 5 miles (8 km)
Ceiling: unknown
Clouds: missing
Weather: no significant weather forecast for this period
Text: BECMG 2219/2221 12004KT
Forecast period: 1900 UTC 22 May 2019 to 1200 UTC 23 May 2019
Forecast type: BECOMING: Conditions expected to become as follows by 2100 UTC 22 May 2019
Winds: from the ESE (120 degrees) at 5 MPH (4 knots; 2.1 m/s)
Visibility: 5 miles (8 km)
Ceiling: unknown
Clouds: missing
Weather: no significant weather forecast for this period
Text: BECMG 2312/2314 27012KT
Forecast period: 1200 UTC 23 May 2019 to 0000 UTC 24 May 2019
Forecast type: BECOMING: Conditions expected to become as follows by 1400 UTC 23 May 2019
Winds: from the W (270 degrees) at 14 MPH (12 knots; 6.2 m/s)
Visibility: 5 miles (8 km)
Ceiling: unknown
Clouds: missing
Weather: no significant weather forecast for this period

 FLUGHAFENKARTE

 RUNWAY INFORMATION
Runway 10 Runway length 10499 ft Runway width 148 ft
Runway elevation 198 ft Runway displaced threshold 0 ft Runway heading 92
Runway 28 Runway length 10499 ft Runway width 148 ft
Runway elevation 254 ft Runway displaced threshold 0 ft Runway heading 272

 AIRPORT FREQUENCIES
Type APP Name AGADIR APP Frequency 120.9 MHZ
Type TWR Name AGADIR TWR Frequency 119.5 MHZ

 AIRPORT NEAR NAVIGATION AIDS
Type VOR-DME Name Agadir Frequency 117200 KHZ
Type NDB Name Agadir Frequency 396 KHZ
Type NDB Name Agadir Frequency 402 KHZ